sensor_id;sensor_type;location;lat;lon;timestamp;temperature;humidity
24162;DHT22;12318;51.262;7.066;2022-09-03T00:00:27;17.90;83.40
24162;DHT22;12318;51.262;7.066;2022-09-03T00:03:16;17.90;83.50
24162;DHT22;12318;51.262;7.066;2022-09-03T00:06:01;18.00;83.10
24162;DHT22;12318;51.262;7.066;2022-09-03T00:08:33;18.00;83.10
24162;DHT22;12318;51.262;7.066;2022-09-03T00:11:28;18.00;83.30
24162;DHT22;12318;51.262;7.066;2022-09-03T00:20:05;17.90;83.90
24162;DHT22;12318;51.262;7.066;2022-09-03T00:22:41;17.90;83.90
24162;DHT22;12318;51.262;7.066;2022-09-03T00:25:24;17.90;84.10
24162;DHT22;12318;51.262;7.066;2022-09-03T00:27:53;17.90;84.00
24162;DHT22;12318;51.262;7.066;2022-09-03T00:30:28;17.90;84.00
24162;DHT22;12318;51.262;7.066;2022-09-03T00:36:01;17.80;84.40
24162;DHT22;12318;51.262;7.066;2022-09-03T00:38:33;17.70;84.70
24162;DHT22;12318;51.262;7.066;2022-09-03T00:41:32;17.70;84.90
24162;DHT22;12318;51.262;7.066;2022-09-03T00:47:01;17.70;84.80
24162;DHT22;12318;51.262;7.066;2022-09-03T00:52:17;17.70;85.00
24162;DHT22;12318;51.262;7.066;2022-09-03T00:55:02;17.60;86.20
24162;DHT22;12318;51.262;7.066;2022-09-03T01:00:19;17.60;85.80
24162;DHT22;12318;51.262;7.066;2022-09-03T01:08:13;17.50;86.00
24162;DHT22;12318;51.262;7.066;2022-09-03T01:11:37;17.50;86.10
24162;DHT22;12318;51.262;7.066;2022-09-03T01:14:39;17.50;86.50
24162;DHT22;12318;51.262;7.066;2022-09-03T01:18:00;17.50;86.30
24162;DHT22;12318;51.262;7.066;2022-09-03T01:40:19;17.40;86.70
24162;DHT22;12318;51.262;7.066;2022-09-03T01:45:54;17.40;86.60
24162;DHT22;12318;51.262;7.066;2022-09-03T01:48:54;17.40;86.60
24162;DHT22;12318;51.262;7.066;2022-09-03T01:51:31;17.30;87.30
24162;DHT22;12318;51.262;7.066;2022-09-03T02:02:22;17.10;88.40
24162;DHT22;12318;51.262;7.066;2022-09-03T02:04:59;17.00;88.80
24162;DHT22;12318;51.262;7.066;2022-09-03T02:07:30;17.10;89.10
24162;DHT22;12318;51.262;7.066;2022-09-03T02:10:01;17.10;89.00
24162;DHT22;12318;51.262;7.066;2022-09-03T02:12:29;17.10;89.10
24162;DHT22;12318;51.262;7.066;2022-09-03T02:14:59;17.10;89.40
24162;DHT22;12318;51.262;7.066;2022-09-03T02:17:27;17.00;89.70
24162;DHT22;12318;51.262;7.066;2022-09-03T02:20:03;17.00;89.70
24162;DHT22;12318;51.262;7.066;2022-09-03T02:22:31;17.00;89.90
24162;DHT22;12318;51.262;7.066;2022-09-03T02:24:57;16.90;90.00
24162;DHT22;12318;51.262;7.066;2022-09-03T02:27:23;16.90;90.00
24162;DHT22;12318;51.262;7.066;2022-09-03T02:29:54;17.00;90.00
24162;DHT22;12318;51.262;7.066;2022-09-03T02:32:20;16.90;90.40
24162;DHT22;12318;51.262;7.066;2022-09-03T02:34:46;16.80;90.60
24162;DHT22;12318;51.262;7.066;2022-09-03T02:37:17;16.90;90.60
24162;DHT22;12318;51.262;7.066;2022-09-03T02:39:45;16.90;90.50
24162;DHT22;12318;51.262;7.066;2022-09-03T02:42:12;16.90;90.60
24162;DHT22;12318;51.262;7.066;2022-09-03T02:44:51;16.90;90.70
24162;DHT22;12318;51.262;7.066;2022-09-03T02:47:17;16.80;90.80
24162;DHT22;12318;51.262;7.066;2022-09-03T02:49:55;16.80;90.90
24162;DHT22;12318;51.262;7.066;2022-09-03T02:52:21;16.80;91.10
24162;DHT22;12318;51.262;7.066;2022-09-03T02:54:46;16.80;91.10
24162;DHT22;12318;51.262;7.066;2022-09-03T02:57:14;16.80;91.20
24162;DHT22;12318;51.262;7.066;2022-09-03T02:59:49;16.70;91.30
24162;DHT22;12318;51.262;7.066;2022-09-03T03:02:15;16.70;91.40
24162;DHT22;12318;51.262;7.066;2022-09-03T03:04:41;16.70;91.50
24162;DHT22;12318;51.262;7.066;2022-09-03T03:07:07;16.60;91.60
24162;DHT22;12318;51.262;7.066;2022-09-03T03:09:34;16.60;91.80
24162;DHT22;12318;51.262;7.066;2022-09-03T03:12:00;16.70;91.80
24162;DHT22;12318;51.262;7.066;2022-09-03T03:14:25;16.60;92.00
24162;DHT22;12318;51.262;7.066;2022-09-03T03:16:51;16.50;92.20
24162;DHT22;12318;51.262;7.066;2022-09-03T03:19:26;16.50;92.30
24162;DHT22;12318;51.262;7.066;2022-09-03T03:21:51;16.50;92.40
24162;DHT22;12318;51.262;7.066;2022-09-03T03:24:17;16.50;92.50
24162;DHT22;12318;51.262;7.066;2022-09-03T03:26:43;16.50;92.50
24162;DHT22;12318;51.262;7.066;2022-09-03T03:29:13;16.50;92.60
24162;DHT22;12318;51.262;7.066;2022-09-03T03:31:40;16.50;92.70
24162;DHT22;12318;51.262;7.066;2022-09-03T03:34:06;16.60;92.50
24162;DHT22;12318;51.262;7.066;2022-09-03T03:36:32;16.50;92.60
24162;DHT22;12318;51.262;7.066;2022-09-03T03:38:59;16.50;92.70
24162;DHT22;12318;51.262;7.066;2022-09-03T03:41:33;16.60;92.60
24162;DHT22;12318;51.262;7.066;2022-09-03T03:44:01;16.60;92.70
24162;DHT22;12318;51.262;7.066;2022-09-03T03:46:35;16.60;92.60
24162;DHT22;12318;51.262;7.066;2022-09-03T03:49:01;16.60;92.80
24162;DHT22;12318;51.262;7.066;2022-09-03T03:51:28;16.70;92.60
24162;DHT22;12318;51.262;7.066;2022-09-03T03:53:55;16.60;92.60
24162;DHT22;12318;51.262;7.066;2022-09-03T03:56:22;16.70;92.60
24162;DHT22;12318;51.262;7.066;2022-09-03T03:58:49;16.70;92.60
24162;DHT22;12318;51.262;7.066;2022-09-03T04:01:40;16.60;92.70
24162;DHT22;12318;51.262;7.066;2022-09-03T04:04:06;16.70;92.70
24162;DHT22;12318;51.262;7.066;2022-09-03T04:06:31;16.70;92.80
24162;DHT22;12318;51.262;7.066;2022-09-03T04:08:57;16.60;92.90
24162;DHT22;12318;51.262;7.066;2022-09-03T04:11:25;16.60;92.90
24162;DHT22;12318;51.262;7.066;2022-09-03T04:13:51;16.70;92.90
24162;DHT22;12318;51.262;7.066;2022-09-03T04:16:20;16.70;93.00
24162;DHT22;12318;51.262;7.066;2022-09-03T04:18:46;16.70;93.00
24162;DHT22;12318;51.262;7.066;2022-09-03T04:21:18;16.70;93.00
24162;DHT22;12318;51.262;7.066;2022-09-03T04:23:45;16.60;93.10
24162;DHT22;12318;51.262;7.066;2022-09-03T04:26:14;16.60;93.20
24162;DHT22;12318;51.262;7.066;2022-09-03T04:28:40;16.60;93.40
24162;DHT22;12318;51.262;7.066;2022-09-03T04:34:31;16.60;93.40
24162;DHT22;12318;51.262;7.066;2022-09-03T04:36:57;16.50;93.60
24162;DHT22;12318;51.262;7.066;2022-09-03T04:39:25;16.50;93.60
24162;DHT22;12318;51.262;7.066;2022-09-03T04:41:50;16.50;93.80
24162;DHT22;12318;51.262;7.066;2022-09-03T04:44:16;16.60;93.70
24162;DHT22;12318;51.262;7.066;2022-09-03T04:46:42;16.50;93.80
24162;DHT22;12318;51.262;7.066;2022-09-03T04:49:07;16.50;94.30
24162;DHT22;12318;51.262;7.066;2022-09-03T04:51:34;16.50;94.00
24162;DHT22;12318;51.262;7.066;2022-09-03T04:54:02;16.50;94.00
24162;DHT22;12318;51.262;7.066;2022-09-03T04:56:33;16.50;94.10
24162;DHT22;12318;51.262;7.066;2022-09-03T04:59:07;16.50;94.30
24162;DHT22;12318;51.262;7.066;2022-09-03T05:01:34;16.40;94.50
24162;DHT22;12318;51.262;7.066;2022-09-03T05:04:01;16.50;94.50
24162;DHT22;12318;51.262;7.066;2022-09-03T05:06:28;16.40;94.50
24162;DHT22;12318;51.262;7.066;2022-09-03T05:08:55;16.40;94.60
24162;DHT22;12318;51.262;7.066;2022-09-03T05:11:30;16.50;94.60
24162;DHT22;12318;51.262;7.066;2022-09-03T05:13:58;16.40;94.80
24162;DHT22;12318;51.262;7.066;2022-09-03T05:16:25;16.50;94.70
24162;DHT22;12318;51.262;7.066;2022-09-03T05:18:53;16.50;94.90
24162;DHT22;12318;51.262;7.066;2022-09-03T05:21:27;16.50;94.90
24162;DHT22;12318;51.262;7.066;2022-09-03T05:23:53;16.50;94.90
24162;DHT22;12318;51.262;7.066;2022-09-03T05:26:30;16.50;95.10
24162;DHT22;12318;51.262;7.066;2022-09-03T05:28:59;16.50;95.10
24162;DHT22;12318;51.262;7.066;2022-09-03T05:31:35;16.50;95.10
24162;DHT22;12318;51.262;7.066;2022-09-03T05:34:03;16.60;95.20
24162;DHT22;12318;51.262;7.066;2022-09-03T05:36:31;16.60;95.20
24162;DHT22;12318;51.262;7.066;2022-09-03T05:38:59;16.60;95.20
24162;DHT22;12318;51.262;7.066;2022-09-03T05:41:26;16.60;95.20
24162;DHT22;12318;51.262;7.066;2022-09-03T05:43:53;16.60;95.30
24162;DHT22;12318;51.262;7.066;2022-09-03T05:46:29;16.70;95.20
24162;DHT22;12318;51.262;7.066;2022-09-03T05:49:04;16.70;95.20
24162;DHT22;12318;51.262;7.066;2022-09-03T05:51:37;16.80;95.00
24162;DHT22;12318;51.262;7.066;2022-09-03T05:54:05;16.90;95.00
24162;DHT22;12318;51.262;7.066;2022-09-03T05:56:33;16.90;95.00
24162;DHT22;12318;51.262;7.066;2022-09-03T05:59:03;16.90;94.90
24162;DHT22;12318;51.262;7.066;2022-09-03T06:01:47;17.10;94.70
24162;DHT22;12318;51.262;7.066;2022-09-03T06:04:15;17.10;94.80
24162;DHT22;12318;51.262;7.066;2022-09-03T06:06:45;17.10;94.70
24162;DHT22;12318;51.262;7.066;2022-09-03T06:09:13;17.30;94.70
24162;DHT22;12318;51.262;7.066;2022-09-03T06:11:41;17.30;94.60
24162;DHT22;12318;51.262;7.066;2022-09-03T06:14:09;17.30;94.40
24162;DHT22;12318;51.262;7.066;2022-09-03T06:16:38;17.40;94.40
24162;DHT22;12318;51.262;7.066;2022-09-03T06:19:05;17.50;94.40
24162;DHT22;12318;51.262;7.066;2022-09-03T06:21:47;17.50;94.30
24162;DHT22;12318;51.262;7.066;2022-09-03T06:24:18;17.60;94.40
24162;DHT22;12318;51.262;7.066;2022-09-03T06:26:44;17.60;94.10
24162;DHT22;12318;51.262;7.066;2022-09-03T06:29:11;17.70;94.10
24162;DHT22;12318;51.262;7.066;2022-09-03T06:31:43;17.80;94.10
24162;DHT22;12318;51.262;7.066;2022-09-03T06:34:09;17.80;94.10
24162;DHT22;12318;51.262;7.066;2022-09-03T06:36:35;17.90;94.10
24162;DHT22;12318;51.262;7.066;2022-09-03T06:39:01;18.00;93.90
24162;DHT22;12318;51.262;7.066;2022-09-03T06:41:30;18.10;93.80
24162;DHT22;12318;51.262;7.066;2022-09-03T06:44:05;18.20;93.60
24162;DHT22;12318;51.262;7.066;2022-09-03T06:46:33;18.30;93.50
24162;DHT22;12318;51.262;7.066;2022-09-03T06:48:59;18.30;93.30
24162;DHT22;12318;51.262;7.066;2022-09-03T06:51:29;18.30;93.20
24162;DHT22;12318;51.262;7.066;2022-09-03T06:54:06;18.50;93.10
24162;DHT22;12318;51.262;7.066;2022-09-03T06:56:33;18.60;92.90
24162;DHT22;12318;51.262;7.066;2022-09-03T06:59:03;18.70;92.70
24162;DHT22;12318;51.262;7.066;2022-09-03T07:01:31;18.80;92.50
24162;DHT22;12318;51.262;7.066;2022-09-03T07:04:02;18.90;92.30
24162;DHT22;12318;51.262;7.066;2022-09-03T07:06:32;19.00;92.30
24162;DHT22;12318;51.262;7.066;2022-09-03T07:09:01;18.90;92.30
24162;DHT22;12318;51.262;7.066;2022-09-03T07:11:44;19.00;92.20
24162;DHT22;12318;51.262;7.066;2022-09-03T07:14:15;19.20;92.00
24162;DHT22;12318;51.262;7.066;2022-09-03T07:16:41;19.30;91.70
24162;DHT22;12318;51.262;7.066;2022-09-03T07:19:07;19.20;91.60
24162;DHT22;12318;51.262;7.066;2022-09-03T07:21:34;19.30;91.50
24162;DHT22;12318;51.262;7.066;2022-09-03T07:24:01;19.40;91.50
24162;DHT22;12318;51.262;7.066;2022-09-03T07:26:35;19.60;91.40
24162;DHT22;12318;51.262;7.066;2022-09-03T07:29:03;19.60;91.10
24162;DHT22;12318;51.262;7.066;2022-09-03T07:31:31;19.60;91.10
24162;DHT22;12318;51.262;7.066;2022-09-03T07:34:03;19.60;91.30
24162;DHT22;12318;51.262;7.066;2022-09-03T07:36:40;19.70;90.80
24162;DHT22;12318;51.262;7.066;2022-09-03T07:39:08;19.70;90.70
24162;DHT22;12318;51.262;7.066;2022-09-03T07:41:46;19.90;90.70
24162;DHT22;12318;51.262;7.066;2022-09-03T07:44:13;20.00;90.40
24162;DHT22;12318;51.262;7.066;2022-09-03T07:46:40;20.10;90.60
24162;DHT22;12318;51.262;7.066;2022-09-03T07:49:06;20.20;89.80
24162;DHT22;12318;51.262;7.066;2022-09-03T07:51:37;20.20;90.00
24162;DHT22;12318;51.262;7.066;2022-09-03T07:54:05;20.40;90.00
24162;DHT22;12318;51.262;7.066;2022-09-03T07:56:32;20.40;89.00
24162;DHT22;12318;51.262;7.066;2022-09-03T07:58:59;20.40;89.30
24162;DHT22;12318;51.262;7.066;2022-09-03T08:01:32;20.50;89.50
24162;DHT22;12318;51.262;7.066;2022-09-03T08:03:58;20.60;89.10
24162;DHT22;12318;51.262;7.066;2022-09-03T08:06:26;20.50;88.70
24162;DHT22;12318;51.262;7.066;2022-09-03T08:09:00;20.60;88.30
24162;DHT22;12318;51.262;7.066;2022-09-03T08:11:26;20.60;89.10
24162;DHT22;12318;51.262;7.066;2022-09-03T08:14:13;20.30;88.40
24162;DHT22;12318;51.262;7.066;2022-09-03T08:16:41;20.40;88.80
24162;DHT22;12318;51.262;7.066;2022-09-03T08:19:08;20.30;89.30
24162;DHT22;12318;51.262;7.066;2022-09-03T08:21:35;20.50;89.40
24162;DHT22;12318;51.262;7.066;2022-09-03T08:24:00;20.50;88.90
24162;DHT22;12318;51.262;7.066;2022-09-03T08:26:33;20.40;88.90
24162;DHT22;12318;51.262;7.066;2022-09-03T08:29:00;20.80;88.30
24162;DHT22;12318;51.262;7.066;2022-09-03T08:31:28;20.60;88.00
24162;DHT22;12318;51.262;7.066;2022-09-03T08:33:56;20.70;88.90
24162;DHT22;12318;51.262;7.066;2022-09-03T08:36:27;20.80;88.30
24162;DHT22;12318;51.262;7.066;2022-09-03T08:38:55;21.00;87.70
24162;DHT22;12318;51.262;7.066;2022-09-03T08:44:43;21.00;87.70
24162;DHT22;12318;51.262;7.066;2022-09-03T08:50:37;21.20;87.20
24162;DHT22;12318;51.262;7.066;2022-09-03T08:53:18;21.40;87.10
24162;DHT22;12318;51.262;7.066;2022-09-03T08:55:52;21.40;86.70
24162;DHT22;12318;51.262;7.066;2022-09-03T08:58:25;21.30;86.40
24162;DHT22;12318;51.262;7.066;2022-09-03T09:01:09;21.50;86.00
24162;DHT22;12318;51.262;7.066;2022-09-03T09:06:36;21.50;85.30
24162;DHT22;12318;51.262;7.066;2022-09-03T09:11:57;21.20;86.80
24162;DHT22;12318;51.262;7.066;2022-09-03T09:14:48;21.40;86.80
24162;DHT22;12318;51.262;7.066;2022-09-03T09:17:30;21.70;85.40
24162;DHT22;12318;51.262;7.066;2022-09-03T09:23:07;21.90;85.00
24162;DHT22;12318;51.262;7.066;2022-09-03T09:25:48;21.70;85.60
24162;DHT22;12318;51.262;7.066;2022-09-03T09:28:28;21.80;85.60
24162;DHT22;12318;51.262;7.066;2022-09-03T09:30:55;21.90;85.90
24162;DHT22;12318;51.262;7.066;2022-09-03T09:33:21;21.60;86.70
24162;DHT22;12318;51.262;7.066;2022-09-03T09:35:48;21.40;87.30
24162;DHT22;12318;51.262;7.066;2022-09-03T09:38:14;21.20;88.30
24162;DHT22;12318;51.262;7.066;2022-09-03T09:40:48;21.30;88.50
24162;DHT22;12318;51.262;7.066;2022-09-03T09:43:15;21.80;86.80
24162;DHT22;12318;51.262;7.066;2022-09-03T09:45:46;21.80;87.30
24162;DHT22;12318;51.262;7.066;2022-09-03T09:50:41;21.90;86.70
24162;DHT22;12318;51.262;7.066;2022-09-03T09:53:08;22.20;85.50
24162;DHT22;12318;51.262;7.066;2022-09-03T09:55:50;22.00;86.10
24162;DHT22;12318;51.262;7.066;2022-09-03T09:58:21;22.10;85.40
24162;DHT22;12318;51.262;7.066;2022-09-03T10:01:11;21.60;87.30
24162;DHT22;12318;51.262;7.066;2022-09-03T10:04:07;21.60;88.10
24162;DHT22;12318;51.262;7.066;2022-09-03T10:06:28;21.60;88.00
24162;DHT22;12318;51.262;7.066;2022-09-03T10:09:18;21.10;88.30
24162;DHT22;12318;51.262;7.066;2022-09-03T10:11:52;21.10;90.00
24162;DHT22;12318;51.262;7.066;2022-09-03T10:14:37;21.40;88.90
24162;DHT22;12318;51.262;7.066;2022-09-03T10:23:07;21.50;90.00
24162;DHT22;12318;51.262;7.066;2022-09-03T10:25:42;21.50;90.00
24162;DHT22;12318;51.262;7.066;2022-09-03T10:28:17;21.70;89.50
24162;DHT22;12318;51.262;7.066;2022-09-03T10:33:55;22.00;90.10
24162;DHT22;12318;51.262;7.066;2022-09-03T10:49:51;22.40;88.90
24162;DHT22;12318;51.262;7.066;2022-09-03T10:52:43;22.30;88.40
24162;DHT22;12318;51.262;7.066;2022-09-03T10:55:49;21.90;89.00
24162;DHT22;12318;51.262;7.066;2022-09-03T11:02:28;21.60;90.30
24162;DHT22;12318;51.262;7.066;2022-09-03T11:05:08;21.80;90.40
24162;DHT22;12318;51.262;7.066;2022-09-03T11:08:04;21.80;90.50
24162;DHT22;12318;51.262;7.066;2022-09-03T11:10:33;21.30;91.40
24162;DHT22;12318;51.262;7.066;2022-09-03T11:15:38;21.70;91.50
24162;DHT22;12318;51.262;7.066;2022-09-03T11:18:14;21.60;92.00
24162;DHT22;12318;51.262;7.066;2022-09-03T11:23:47;21.50;91.90
24162;DHT22;12318;51.262;7.066;2022-09-03T11:26:17;21.40;92.10
24162;DHT22;12318;51.262;7.066;2022-09-03T11:28:59;21.40;92.10
24162;DHT22;12318;51.262;7.066;2022-09-03T11:34:26;21.10;92.80
24162;DHT22;12318;51.262;7.066;2022-09-03T11:39:44;21.40;92.80
24162;DHT22;12318;51.262;7.066;2022-09-03T11:42:11;21.40;92.90
24162;DHT22;12318;51.262;7.066;2022-09-03T11:44:45;21.20;93.00
24162;DHT22;12318;51.262;7.066;2022-09-03T11:47:22;21.40;93.50
24162;DHT22;12318;51.262;7.066;2022-09-03T11:53:06;21.70;93.70
24162;DHT22;12318;51.262;7.066;2022-09-03T11:55:55;21.60;94.00
24162;DHT22;12318;51.262;7.066;2022-09-03T11:58:24;21.50;95.80
24162;DHT22;12318;51.262;7.066;2022-09-03T12:01:12;21.10;99.60
24162;DHT22;12318;51.262;7.066;2022-09-03T12:06:48;20.70;99.90
24162;DHT22;12318;51.262;7.066;2022-09-03T12:18:48;21.00;99.90
24162;DHT22;12318;51.262;7.066;2022-09-03T12:21:17;21.00;99.90
24162;DHT22;12318;51.262;7.066;2022-09-03T12:23:46;21.20;99.90
24162;DHT22;12318;51.262;7.066;2022-09-03T12:26:22;21.20;99.90
24162;DHT22;12318;51.262;7.066;2022-09-03T12:28:56;21.60;99.90
24162;DHT22;12318;51.262;7.066;2022-09-03T12:31:30;22.00;99.90
24162;DHT22;12318;51.262;7.066;2022-09-03T12:34:08;21.90;99.70
24162;DHT22;12318;51.262;7.066;2022-09-03T12:36:44;22.20;99.90
24162;DHT22;12318;51.262;7.066;2022-09-03T12:39:13;22.20;99.70
24162;DHT22;12318;51.262;7.066;2022-09-03T12:42:06;22.40;98.60
24162;DHT22;12318;51.262;7.066;2022-09-03T12:47:09;22.60;96.00
24162;DHT22;12318;51.262;7.066;2022-09-03T12:49:47;22.80;95.90
24162;DHT22;12318;51.262;7.066;2022-09-03T12:54:58;23.10;94.60
24162;DHT22;12318;51.262;7.066;2022-09-03T12:57:33;23.10;94.90
24162;DHT22;12318;51.262;7.066;2022-09-03T13:00:13;23.40;94.60
24162;DHT22;12318;51.262;7.066;2022-09-03T13:05:21;23.70;94.30
24162;DHT22;12318;51.262;7.066;2022-09-03T13:07:54;23.50;94.40
24162;DHT22;12318;51.262;7.066;2022-09-03T13:12:58;23.50;94.80
24162;DHT22;12318;51.262;7.066;2022-09-03T13:15:25;23.40;95.20
24162;DHT22;12318;51.262;7.066;2022-09-03T13:21:00;23.50;95.00
24162;DHT22;12318;51.262;7.066;2022-09-03T13:23:51;23.50;95.60
24162;DHT22;12318;51.262;7.066;2022-09-03T13:34:47;24.20;95.00
24162;DHT22;12318;51.262;7.066;2022-09-03T13:39:52;24.50;94.00
24162;DHT22;12318;51.262;7.066;2022-09-03T13:42:32;23.90;94.00
24162;DHT22;12318;51.262;7.066;2022-09-03T14:06:06;23.90;94.30
24162;DHT22;12318;51.262;7.066;2022-09-03T14:11:18;23.90;94.20
24162;DHT22;12318;51.262;7.066;2022-09-03T14:14:11;23.80;94.20
24162;DHT22;12318;51.262;7.066;2022-09-03T14:19:31;23.60;94.80
24162;DHT22;12318;51.262;7.066;2022-09-03T14:24:55;23.90;94.30
24162;DHT22;12318;51.262;7.066;2022-09-03T14:27:28;23.60;94.70
24162;DHT22;12318;51.262;7.066;2022-09-03T14:30:48;23.50;94.80
24162;DHT22;12318;51.262;7.066;2022-09-03T14:35:38;23.80;94.60
24162;DHT22;12318;51.262;7.066;2022-09-03T14:44:46;24.10;94.50
24162;DHT22;12318;51.262;7.066;2022-09-03T14:47:05;24.00;94.20
24162;DHT22;12318;51.262;7.066;2022-09-03T14:55:14;24.20;94.10
24162;DHT22;12318;51.262;7.066;2022-09-03T14:58:12;24.50;93.90
24162;DHT22;12318;51.262;7.066;2022-09-03T15:10:12;25.10;92.40
24162;DHT22;12318;51.262;7.066;2022-09-03T15:21:24;25.40;92.00
24162;DHT22;12318;51.262;7.066;2022-09-03T15:26:50;24.70;92.50
24162;DHT22;12318;51.262;7.066;2022-09-03T15:29:38;24.80;92.60
24162;DHT22;12318;51.262;7.066;2022-09-03T15:35:03;25.10;92.40
24162;DHT22;12318;51.262;7.066;2022-09-03T15:37:54;25.00;92.50
24162;DHT22;12318;51.262;7.066;2022-09-03T15:40:31;24.90;92.60
24162;DHT22;12318;51.262;7.066;2022-09-03T15:43:10;24.60;92.40
24162;DHT22;12318;51.262;7.066;2022-09-03T15:53:57;24.70;93.10
24162;DHT22;12318;51.262;7.066;2022-09-03T15:56:35;25.20;92.60
24162;DHT22;12318;51.262;7.066;2022-09-03T16:02:29;25.50;92.50
24162;DHT22;12318;51.262;7.066;2022-09-03T16:10:21;24.70;94.40
24162;DHT22;12318;51.262;7.066;2022-09-03T16:16:05;24.20;95.60
24162;DHT22;12318;51.262;7.066;2022-09-03T16:24:21;23.90;97.00
24162;DHT22;12318;51.262;7.066;2022-09-03T16:27:04;24.00;96.80
24162;DHT22;12318;51.262;7.066;2022-09-03T16:30:09;23.80;97.60
24162;DHT22;12318;51.262;7.066;2022-09-03T16:38:42;23.60;98.40
24162;DHT22;12318;51.262;7.066;2022-09-03T16:41:40;23.50;98.50
24162;DHT22;12318;51.262;7.066;2022-09-03T16:53:14;23.10;99.90
24162;DHT22;12318;51.262;7.066;2022-09-03T16:58:55;22.50;99.90
24162;DHT22;12318;51.262;7.066;2022-09-03T17:07:24;22.00;99.90
24162;DHT22;12318;51.262;7.066;2022-09-03T17:13:06;21.50;99.90
24162;DHT22;12318;51.262;7.066;2022-09-03T17:15:43;21.40;99.90
24162;DHT22;12318;51.262;7.066;2022-09-03T17:33:36;20.80;99.90
24162;DHT22;12318;51.262;7.066;2022-09-03T17:35:37;20.60;99.90
24162;DHT22;12318;51.262;7.066;2022-09-03T17:41:36;20.40;99.90
24162;DHT22;12318;51.262;7.066;2022-09-03T17:46:45;20.10;99.90
24162;DHT22;12318;51.262;7.066;2022-09-03T17:49:24;20.10;99.90
24162;DHT22;12318;51.262;7.066;2022-09-03T17:52:04;20.10;99.90
24162;DHT22;12318;51.262;7.066;2022-09-03T17:54:44;20.10;99.90
24162;DHT22;12318;51.262;7.066;2022-09-03T17:57:25;19.90;99.90
24162;DHT22;12318;51.262;7.066;2022-09-03T18:00:09;19.80;99.90
24162;DHT22;12318;51.262;7.066;2022-09-03T18:05:26;19.90;99.90
24162;DHT22;12318;51.262;7.066;2022-09-03T18:11:10;20.00;99.90
24162;DHT22;12318;51.262;7.066;2022-09-03T18:16:36;20.00;99.90
24162;DHT22;12318;51.262;7.066;2022-09-03T18:19:09;19.90;99.90
24162;DHT22;12318;51.262;7.066;2022-09-03T18:21:46;20.00;99.90
24162;DHT22;12318;51.262;7.066;2022-09-03T18:27:32;19.90;99.90
24162;DHT22;12318;51.262;7.066;2022-09-03T18:30:19;20.00;99.90
24162;DHT22;12318;51.262;7.066;2022-09-03T18:33:03;19.80;99.90
24162;DHT22;12318;51.262;7.066;2022-09-03T18:35:50;19.60;99.90
24162;DHT22;12318;51.262;7.066;2022-09-03T18:38:37;19.30;99.90
24162;DHT22;12318;51.262;7.066;2022-09-03T18:41:55;19.30;99.90
24162;DHT22;12318;51.262;7.066;2022-09-03T18:45:08;19.30;99.90
24162;DHT22;12318;51.262;7.066;2022-09-03T18:48:03;19.30;99.90
24162;DHT22;12318;51.262;7.066;2022-09-03T18:57:31;19.00;99.90
24162;DHT22;12318;51.262;7.066;2022-09-03T19:00:25;19.00;99.90
24162;DHT22;12318;51.262;7.066;2022-09-03T19:03:39;18.80;99.90
24162;DHT22;12318;51.262;7.066;2022-09-03T19:06:50;18.60;99.90
24162;DHT22;12318;51.262;7.066;2022-09-03T19:19:10;18.40;99.90
24162;DHT22;12318;51.262;7.066;2022-09-03T19:22:10;18.30;99.90
24162;DHT22;12318;51.262;7.066;2022-09-03T19:25:09;18.20;99.90
24162;DHT22;12318;51.262;7.066;2022-09-03T19:28:17;18.20;99.90
24162;DHT22;12318;51.262;7.066;2022-09-03T19:37:22;17.90;99.90
24162;DHT22;12318;51.262;7.066;2022-09-03T19:46:57;17.90;99.90
24162;DHT22;12318;51.262;7.066;2022-09-03T19:53:03;18.00;99.90
24162;DHT22;12318;51.262;7.066;2022-09-03T19:55:53;18.10;99.90
24162;DHT22;12318;51.262;7.066;2022-09-03T19:59:02;18.10;99.90
24162;DHT22;12318;51.262;7.066;2022-09-03T20:01:45;18.10;99.90
24162;DHT22;12318;51.262;7.066;2022-09-03T20:04:33;18.20;99.90
24162;DHT22;12318;51.262;7.066;2022-09-03T20:07:19;18.10;99.90
24162;DHT22;12318;51.262;7.066;2022-09-03T20:10:08;18.00;99.90
24162;DHT22;12318;51.262;7.066;2022-09-03T20:13:10;18.00;99.90
24162;DHT22;12318;51.262;7.066;2022-09-03T20:21:18;17.80;99.90
24162;DHT22;12318;51.262;7.066;2022-09-03T20:23:57;17.70;99.90
24162;DHT22;12318;51.262;7.066;2022-09-03T20:46:07;17.50;99.90
24162;DHT22;12318;51.262;7.066;2022-09-03T20:52:19;17.50;99.90
24162;DHT22;12318;51.262;7.066;2022-09-03T20:55:06;17.50;99.90
24162;DHT22;12318;51.262;7.066;2022-09-03T21:00:18;17.50;99.90
24162;DHT22;12318;51.262;7.066;2022-09-03T21:06:24;17.50;99.90
24162;DHT22;12318;51.262;7.066;2022-09-03T21:11:11;17.40;99.90
24162;DHT22;12318;51.262;7.066;2022-09-03T21:16:35;17.40;99.90
24162;DHT22;12318;51.262;7.066;2022-09-03T21:24:59;17.40;99.90
24162;DHT22;12318;51.262;7.066;2022-09-03T21:27:37;17.40;99.90
24162;DHT22;12318;51.262;7.066;2022-09-03T21:30:28;17.40;99.90
24162;DHT22;12318;51.262;7.066;2022-09-03T21:33:02;17.40;99.90
24162;DHT22;12318;51.262;7.066;2022-09-03T21:35:29;17.40;99.90
24162;DHT22;12318;51.262;7.066;2022-09-03T21:38:07;17.40;99.90
24162;DHT22;12318;51.262;7.066;2022-09-03T21:40:44;17.50;99.90
24162;DHT22;12318;51.262;7.066;2022-09-03T21:43:13;17.50;99.90
24162;DHT22;12318;51.262;7.066;2022-09-03T21:46:00;17.50;99.90
24162;DHT22;12318;51.262;7.066;2022-09-03T21:51:40;17.60;99.90
24162;DHT22;12318;51.262;7.066;2022-09-03T21:57:06;17.60;99.90
24162;DHT22;12318;51.262;7.066;2022-09-03T21:59:57;17.60;99.90
24162;DHT22;12318;51.262;7.066;2022-09-03T22:02:27;17.60;99.90
24162;DHT22;12318;51.262;7.066;2022-09-03T22:04:55;17.60;99.90
24162;DHT22;12318;51.262;7.066;2022-09-03T22:15:35;17.70;99.90
24162;DHT22;12318;51.262;7.066;2022-09-03T22:18:06;17.50;99.90
24162;DHT22;12318;51.262;7.066;2022-09-03T22:20:44;17.50;99.90
24162;DHT22;12318;51.262;7.066;2022-09-03T22:23:21;17.50;99.90
24162;DHT22;12318;51.262;7.066;2022-09-03T22:26:39;17.50;99.90
24162;DHT22;12318;51.262;7.066;2022-09-03T22:29:26;17.50;99.90
24162;DHT22;12318;51.262;7.066;2022-09-03T22:32:01;17.50;99.90
24162;DHT22;12318;51.262;7.066;2022-09-03T22:37:44;17.50;99.90
24162;DHT22;12318;51.262;7.066;2022-09-03T22:40:27;17.50;99.90
24162;DHT22;12318;51.262;7.066;2022-09-03T22:43:14;17.40;99.90
24162;DHT22;12318;51.262;7.066;2022-09-03T22:55:05;17.30;99.90
24162;DHT22;12318;51.262;7.066;2022-09-03T22:57:36;17.30;99.90
24162;DHT22;12318;51.262;7.066;2022-09-03T23:00:08;17.40;99.90
24162;DHT22;12318;51.262;7.066;2022-09-03T23:02:38;17.30;99.90
24162;DHT22;12318;51.262;7.066;2022-09-03T23:08:03;17.30;99.90
24162;DHT22;12318;51.262;7.066;2022-09-03T23:16:44;17.30;99.90
24162;DHT22;12318;51.262;7.066;2022-09-03T23:19:20;17.30;99.90